Time;durP1;ratioP1;P1;durP2;ratioP2;P2;SDS_P1;SDS_P2;PMS_P1;PMS_P2;Temp;Humidity;BMP_temperature;BMP_pressure;BME280_temperature;BME280_humidity;BME280_pressure;Samples;Min_cycle;Max_cycle;Signal;HPM_P1;HPM_P2
2021/10/25 00:01:28;;;;;;;11.20;4.28;;;;;;;5.95;71.10;101337.09;1779612;80;21314;-76
2021/10/25 00:04:32;;;;;;;13.90;3.72;;;;;;;5.94;71.14;101343.52;1779377;79;21861;-76
2021/10/25 00:07:38;;;;;;;9.15;4.08;;;;;;;5.91;71.21;101345.93;1778576;80;21757;-79
2021/10/25 00:10:43;;;;;;;17.62;4.15;;;;;;;5.89;71.30;101343.84;1780023;80;21161;-76
2021/10/25 00:13:49;;;;;;;8.55;3.90;;;;;;;5.89;71.30;101341.13;1778657;80;21290;-76
2021/10/25 00:16:54;;;;;;;7.15;3.47;;;;;;;5.88;71.39;101346.16;1778877;80;21370;-76
2021/10/25 00:19:59;;;;;;;12.40;3.95;;;;;;;5.86;71.42;101346.30;1780105;80;21274;-76
2021/10/25 00:23:06;;;;;;;7.28;4.47;;;;;;;5.86;71.47;101355.80;1778470;80;21782;-76
2021/10/25 00:26:11;;;;;;;7.80;4.28;;;;;;;5.85;71.49;101351.36;1780000;80;21302;-77
2021/10/25 00:29:17;;;;;;;11.70;4.50;;;;;;;5.86;71.50;101361.23;1780116;80;21287;-76
2021/10/25 00:32:22;;;;;;;7.45;4.35;;;;;;;5.85;71.49;101364.94;1780077;80;21204;-76
2021/10/25 00:35:27;;;;;;;12.05;5.72;;;;;;;5.84;71.54;101374.08;1780096;80;21137;-75
2021/10/25 00:38:33;;;;;;;10.15;5.45;;;;;;;5.82;71.57;101375.16;1780217;80;21188;-79
2021/10/25 00:41:39;;;;;;;12.55;4.85;;;;;;;5.81;71.61;101381.09;1779979;80;21160;-76
2021/10/25 00:44:44;;;;;;;12.35;4.87;;;;;;;5.80;71.64;101380.72;1780083;80;21255;-76
2021/10/25 00:47:49;;;;;;;19.20;5.17;;;;;;;5.79;71.67;101376.28;1779341;80;21271;-76
2021/10/25 00:50:54;;;;;;;11.03;4.85;;;;;;;5.78;71.71;101383.17;1779838;80;21145;-79
2021/10/25 00:54:01;;;;;;;10.20;4.17;;;;;;;5.78;71.71;101372.31;1780117;80;21762;-79
2021/10/25 00:57:07;;;;;;;10.82;5.08;;;;;;;5.76;71.69;101384.66;1779218;80;21311;-79
2021/10/25 01:00:14;;;;;;;7.97;4.42;;;;;;;5.73;71.75;101387.59;1778586;80;21834;-78
2021/10/25 01:03:19;;;;;;;10.48;5.67;;;;;;;5.71;71.85;101384.16;1779365;80;21200;-76
2021/10/25 01:06:24;;;;;;;10.65;4.65;;;;;;;5.70;71.90;101390.57;1778522;80;21176;-76
2021/10/25 01:09:29;;;;;;;7.83;4.20;;;;;;;5.70;71.93;101396.00;1778501;80;21825;-78
2021/10/25 01:12:35;;;;;;;9.68;4.60;;;;;;;5.68;71.98;101395.23;1779469;80;21902;-76
2021/10/25 01:15:40;;;;;;;10.95;5.10;;;;;;;5.66;72.07;101396.36;1779848;80;21781;-79
2021/10/25 01:18:45;;;;;;;9.93;5.60;;;;;;;5.64;72.10;101388.31;1779636;80;21247;-79
2021/10/25 01:21:50;;;;;;;10.82;4.87;;;;;;;5.64;72.13;101393.73;1779947;80;21263;-76
2021/10/25 01:24:56;;;;;;;15.72;5.42;;;;;;;5.63;72.12;101399.66;1779874;80;21271;-76
2021/10/25 01:28:02;;;;;;;9.10;4.97;;;;;;;5.61;72.16;101392.64;1778768;80;21283;-78
2021/10/25 01:31:07;;;;;;;9.10;4.90;;;;;;;5.59;72.18;101398.66;1779983;80;21148;-76
2021/10/25 01:34:13;;;;;;;13.83;4.97;;;;;;;5.56;72.20;101408.41;1778574;80;21188;-76
2021/10/25 01:37:19;;;;;;;10.43;4.87;;;;;;;5.55;72.17;101413.44;1779447;80;21188;-76
2021/10/25 01:40:25;;;;;;;10.55;4.47;;;;;;;5.53;72.21;101418.13;1779797;80;21327;-79
2021/10/25 01:43:30;;;;;;;14.93;7.40;;;;;;;5.52;72.21;101425.41;1778849;80;21160;-79
2021/10/25 01:46:37;;;;;;;10.68;5.30;;;;;;;5.51;72.14;101429.12;1778404;80;21219;-76
2021/10/25 01:49:48;;;;;;;9.65;5.12;;;;;;;5.49;72.08;101429.70;1779789;80;21172;-76
2021/10/25 01:52:54;;;;;;;10.58;4.42;;;;;;;5.48;72.01;101440.20;1778518;80;21291;-76
2021/10/25 01:56:01;;;;;;;14.90;6.53;;;;;;;5.48;71.99;101435.27;1780014;80;21265;-76
2021/10/25 01:59:07;;;;;;;12.37;7.00;;;;;;;5.46;72.01;101438.56;1780032;80;21117;-76
2021/10/25 02:02:12;;;;;;;17.77;8.20;;;;;;;5.45;72.09;101447.20;1779795;80;21188;-76
2021/10/25 02:05:17;;;;;;;17.85;8.80;;;;;;;5.43;72.21;101438.32;1780612;79;21291;-78
2021/10/25 02:08:23;;;;;;;19.77;11.80;;;;;;;5.40;72.33;101443.97;1778999;80;21612;-79
2021/10/25 02:11:29;;;;;;;20.30;11.00;;;;;;;5.38;72.46;101458.16;1780055;80;21156;-76
2021/10/25 02:14:33;;;;;;;17.85;10.40;;;;;;;5.34;72.61;101456.16;1779996;80;21840;-76
2021/10/25 02:17:40;;;;;;;19.55;11.12;;;;;;;5.32;72.70;101449.98;1778574;80;21338;-79
2021/10/25 02:20:45;;;;;;;28.10;15.38;;;;;;;5.31;72.83;101452.80;1779852;80;21145;-79
2021/10/25 02:23:49;;;;;;;28.40;12.95;;;;;;;5.28;73.01;101466.12;1778774;80;21290;-75
2021/10/25 02:26:57;;;;;;;23.12;12.03;;;;;;;5.25;73.30;101456.84;1778666;80;21311;-76
2021/10/25 02:30:02;;;;;;;27.58;13.20;;;;;;;5.21;73.80;101466.67;1778470;80;21771;-79
2021/10/25 02:33:10;;;;;;;28.90;13.48;;;;;;;5.18;74.36;101466.42;1778645;80;21311;-78
2021/10/25 02:36:16;;;;;;;29.32;12.75;;;;;;;5.17;74.60;101474.66;1780162;80;21152;-79
2021/10/25 02:39:20;;;;;;;22.90;11.35;;;;;;;5.15;74.98;101477.98;1780162;80;21267;-76
2021/10/25 02:42:25;;;;;;;21.48;10.55;;;;;;;5.13;75.16;101476.75;1780131;80;21314;-79
2021/10/25 02:45:31;;;;;;;16.55;9.35;;;;;;;5.11;75.36;101474.63;1779847;80;21694;-79
2021/10/25 02:48:37;;;;;;;19.17;10.35;;;;;;;5.08;75.49;101471.66;1778745;80;21279;-79
2021/10/25 02:51:43;;;;;;;23.18;8.88;;;;;;;5.04;75.72;101480.14;1779906;80;21303;-76
2021/10/25 02:54:49;;;;;;;15.78;9.20;;;;;;;5.00;75.93;101484.91;1779944;80;21681;-76
2021/10/25 02:57:53;;;;;;;18.87;9.33;;;;;;;4.96;76.05;101488.82;1779284;80;21164;-76
2021/10/25 03:00:59;;;;;;;19.87;10.25;;;;;;;4.94;76.21;101491.25;1780029;80;21255;-79
2021/10/25 03:04:04;;;;;;;14.55;8.55;;;;;;;4.89;76.39;101492.94;1779934;80;21250;-79
2021/10/25 03:07:09;;;;;;;19.85;9.25;;;;;;;4.85;76.46;101495.03;1779516;79;21160;-76
2021/10/25 03:10:15;;;;;;;21.93;9.60;;;;;;;4.82;76.63;101492.53;1779803;80;21586;-76
2021/10/25 03:13:21;;;;;;;15.53;8.58;;;;;;;4.79;76.75;101500.87;1780098;80;21192;-76
2021/10/25 03:16:26;;;;;;;17.73;8.95;;;;;;;4.76;76.82;101492.98;1780124;80;21164;-78
2021/10/25 03:19:31;;;;;;;18.10;9.13;;;;;;;4.73;76.83;101501.81;1779830;80;21826;-77
2021/10/25 03:22:36;;;;;;;18.92;9.43;;;;;;;4.69;77.01;101499.80;1780076;80;21757;-76
2021/10/25 03:25:43;;;;;;;20.55;10.65;;;;;;;4.67;77.08;101495.48;1780146;80;21192;-79
2021/10/25 03:28:48;;;;;;;23.98;10.35;;;;;;;4.66;77.20;101506.81;1780048;80;21686;-76
2021/10/25 03:31:54;;;;;;;14.87;8.58;;;;;;;4.64;77.38;101503.82;1780106;80;21156;-76
2021/10/25 03:35:01;;;;;;;20.95;11.18;;;;;;;4.61;77.50;101508.95;1780093;80;21322;-76
2021/10/25 03:38:09;;;;;;;18.77;11.38;;;;;;;4.57;77.65;101507.47;1780083;80;21276;-78
2021/10/25 03:41:28;;;;;;;19.07;10.28;;;;;;;4.55;77.79;101518.88;1780248;80;21153;-77
2021/10/25 03:44:31;;;;;;;19.50;10.25;;;;;;;4.52;77.88;101510.99;1780198;80;21267;-77
2021/10/25 03:47:51;;;;;;;22.10;9.78;;;;;;;4.50;77.94;101515.63;1780111;80;21318;-79
2021/10/25 03:50:43;;;;;;;17.48;10.13;;;;;;;4.45;78.00;101518.66;1779385;80;21235;-76
2021/10/25 04:30:58;;;;;;;25.60;11.45;;;;;;;3.89;78.65;101565.39;1781270;80;21176;-76
2021/10/25 04:34:05;;;;;;;39.88;12.73;;;;;;;3.89;78.69;101566.75;1782520;80;21267;-79
2021/10/25 04:37:14;;;;;;;;;;;;;;;3.89;78.62;101568.10;1785147;80;21145;-76
2021/10/25 04:40:20;;;;;;;25.00;11.65;;;;;;;3.92;78.53;101569.75;1782559;80;20254;-76
2021/10/25 04:43:25;;;;;;;23.73;12.88;;;;;;;3.93;78.38;101572.83;1782591;80;21299;-79
2021/10/25 04:46:31;;;;;;;24.72;11.95;;;;;;;3.93;78.24;101576.41;1782581;80;21188;-77
2021/10/25 04:49:36;;;;;;;20.05;9.73;;;;;;;3.94;78.07;101580.84;1782194;80;21346;-76
2021/10/25 04:52:47;;;;;;;15.28;7.87;;;;;;;3.95;77.89;101585.31;1752617;80;21757;-76
2021/10/25 04:55:52;;;;;;;28.15;10.08;;;;;;;3.94;77.72;101588.09;1782325;80;21156;-76
2021/10/25 04:58:56;;;;;;;24.43;10.20;;;;;;;3.95;77.56;101585.77;1781471;80;21725;-79
2021/10/25 05:02:02;;;;;;;21.00;9.05;;;;;;;3.95;77.42;101597.49;1783939;79;21724;-76
2021/10/25 05:05:10;;;;;;;18.52;8.43;;;;;;;3.94;77.29;101593.02;1774041;80;21321;-79
2021/10/25 05:08:15;;;;;;;13.70;7.87;;;;;;;3.94;77.14;101597.09;1776366;79;21294;-79
2021/10/25 05:11:23;;;;;;;17.77;7.97;;;;;;;3.96;77.07;101598.36;1772345;79;21274;-76
2021/10/25 05:14:29;;;;;;;15.53;6.30;;;;;;;4.00;76.84;101598.51;1777396;79;21160;-80
2021/10/25 05:17:36;;;;;;;12.88;6.80;;;;;;;4.04;76.64;101604.11;1760616;81;21888;-80
2021/10/25 05:20:42;;;;;;;10.23;5.62;;;;;;;4.08;76.34;101602.93;1755774;80;21762;-81
2021/10/25 05:23:48;;;;;;;8.83;4.22;;;;;;;4.12;75.71;101603.60;1744618;81;21339;-78
2021/10/25 05:26:54;;;;;;;6.58;3.22;;;;;;;4.15;75.00;101604.77;1761793;80;21279;-77
2021/10/25 05:29:59;;;;;;;8.03;3.55;;;;;;;4.18;74.51;101621.64;1740449;82;21869;-77
2021/10/25 05:33:04;;;;;;;8.73;3.55;;;;;;;4.23;74.03;101623.55;1757355;81;21299;-77
2021/10/25 05:36:10;;;;;;;3.92;2.80;;;;;;;4.27;73.21;101630.51;1730513;82;21291;-80
2021/10/25 05:39:15;;;;;;;6.08;3.08;;;;;;;4.31;72.67;101637.45;1763100;81;21293;-81
2021/10/25 05:42:22;;;;;;;3.55;2.40;;;;;;;4.33;72.33;101647.72;1761151;80;21622;-77
2021/10/25 05:45:29;;;;;;;3.95;2.17;;;;;;;4.35;71.77;101651.18;1757947;81;21627;-77
2021/10/25 05:48:35;;;;;;;6.58;2.10;;;;;;;4.38;71.33;101653.32;1759767;81;21354;-80
2021/10/25 05:51:40;;;;;;;6.87;2.50;;;;;;;4.42;71.08;101663.81;1761353;80;21335;-80
2021/10/25 05:54:46;;;;;;;3.30;2.42;;;;;;;4.47;70.71;101669.81;1759272;80;21330;-77
2021/10/25 05:57:53;;;;;;;5.40;2.27;;;;;;;4.52;69.90;101674.92;1757509;81;21820;-81
2021/10/25 06:01:02;;;;;;;13.15;2.30;;;;;;;4.54;69.18;101676.55;1759924;80;21294;-80
2021/10/25 06:04:10;;;;;;;4.67;1.98;;;;;;;4.61;68.63;101687.81;1756038;80;21283;-77
2021/10/25 06:07:17;;;;;;;4.97;1.80;;;;;;;4.67;68.29;101690.63;1755531;81;22123;-77
2021/10/25 06:10:30;;;;;;;3.65;2.17;;;;;;;4.75;68.08;101690.95;1752069;80;21271;-77
2021/10/25 06:13:44;;;;;;;;;;;;;;;4.85;67.52;101699.72;1759396;80;21318;-75
2021/10/25 06:16:42;;;;;;;3.30;2.12;;;;;;;4.96;67.03;101702.17;1754672;81;20732;-75
2021/10/25 06:19:48;;;;;;;6.95;2.37;;;;;;;5.03;66.69;101701.62;1758937;81;21329;-76
2021/10/25 06:22:53;;;;;;;5.62;2.33;;;;;;;5.11;66.04;101709.23;1758046;80;21888;-76
2021/10/25 06:25:59;;;;;;;5.92;2.55;;;;;;;5.21;65.88;101711.67;1757739;81;21263;-76
2021/10/25 06:29:05;;;;;;;4.37;2.50;;;;;;;5.29;65.39;101712.51;1761122;81;21263;-76
2021/10/25 06:32:12;;;;;;;3.65;2.30;;;;;;;5.37;64.73;101719.62;1756236;80;21275;-75
2021/10/25 06:35:23;;;;;;;5.60;2.95;;;;;;;5.38;64.48;101715.44;1756361;80;21306;-76
2021/10/25 06:38:52;;;;;;;7.33;2.55;;;;;;;5.44;64.35;101719.55;1751256;81;21280;-76
2021/10/25 06:41:54;;;;;;;7.05;3.25;;;;;;;5.51;64.57;101716.80;1747714;81;21278;-76
2021/10/25 06:45:01;;;;;;;7.40;3.30;;;;;;;5.60;63.90;101719.34;1752653;81;21531;-80
2021/10/25 06:48:08;;;;;;;4.87;3.05;;;;;;;5.63;63.64;101723.18;1756344;81;21961;-79
2021/10/25 06:51:14;;;;;;;6.85;3.55;;;;;;;5.67;63.46;101727.41;1757080;80;21374;-79
2021/10/25 06:54:20;;;;;;;5.22;3.25;;;;;;;5.71;63.20;101730.78;1757191;81;21323;-80
2021/10/25 06:57:25;;;;;;;8.35;3.55;;;;;;;5.76;63.33;101724.03;1756522;81;21337;-76
2021/10/25 07:00:31;;;;;;;9.38;4.03;;;;;;;5.85;62.94;101726.58;1759453;80;21330;-77
2021/10/25 07:03:38;;;;;;;11.75;4.50;;;;;;;5.93;62.66;101729.65;1754090;80;21358;-76
2021/10/25 07:06:51;;;;;;;11.35;4.58;;;;;;;5.98;62.13;101726.10;1761657;81;21600;-76
2021/10/25 07:09:57;;;;;;;12.55;4.67;;;;;;;6.02;61.91;101726.72;1758826;81;21303;-76
2021/10/25 07:13:07;;;;;;;6.07;3.53;;;;;;;6.05;61.85;101723.79;1757438;80;21617;-76
2021/10/25 07:16:22;;;;;;;17.77;4.65;;;;;;;6.10;61.80;101732.47;1754894;80;21509;-76
2021/10/25 07:26:47;;;;;;;11.63;5.65;;;;;;;6.30;60.99;101729.63;1734256;82;21287;-76
2021/10/25 08:12:57;;;;;;;5.15;2.67;;;;;;;6.59;55.68;101741.06;1730096;81;21279;-75
2021/10/25 08:16:42;;;;;;;5.28;2.30;;;;;;;6.60;55.04;101739.58;1724430;81;21211;-77
2021/10/25 08:19:33;;;;;;;12.98;2.70;;;;;;;6.68;54.48;101740.36;1752969;80;21334;-76
2021/10/25 08:22:17;;;;;;;7.40;3.15;;;;;;;6.75;53.38;101732.09;1756898;80;21864;-76
2021/10/25 08:25:25;;;;;;;5.12;2.98;;;;;;;6.82;53.67;101738.82;1753552;81;21355;-77
2021/10/25 08:28:34;;;;;;;2.83;2.00;;;;;;;6.98;51.58;101738.99;1757610;80;21140;-75
2021/10/25 08:31:41;;;;;;;4.25;2.62;;;;;;;7.15;51.54;101734.45;1759470;80;21353;-76
2021/10/25 08:41:38;;;;;;;6.10;2.70;;;;;;;7.47;47.79;101750.12;1760423;80;21298;-80
2021/10/25 08:44:44;;;;;;;;;;;;;;;7.49;49.16;101744.94;1761828;80;21176;-79
2021/10/25 08:47:52;;;;;;;6.17;3.42;;;;;;;7.53;49.02;101741.45;1760020;80;20185;-75
2021/10/25 08:51:00;;;;;;;7.22;2.55;;;;;;;7.52;49.07;101746.03;1760590;79;21128;-75
2021/10/25 08:54:05;;;;;;;3.75;2.05;;;;;;;7.55;48.55;101743.58;1759744;80;21200;-76
2021/10/25 08:57:11;;;;;;;6.75;2.50;;;;;;;7.54;48.01;101750.02;1758598;80;21286;-76
2021/10/25 09:00:19;;;;;;;4.85;2.67;;;;;;;7.56;46.97;101743.95;1755776;80;21253;-75
2021/10/25 09:03:26;;;;;;;3.65;1.60;;;;;;;7.63;45.51;101746.07;1765883;80;21290;-75
2021/10/25 09:06:33;;;;;;;3.20;1.27;;;;;;;7.71;44.53;101746.80;1758191;80;21286;-75
2021/10/25 09:09:38;;;;;;;14.35;6.85;;;;;;;7.74;44.23;101748.42;1756149;80;21915;-75
2021/10/25 09:12:45;;;;;;;9.98;3.65;;;;;;;7.72;44.04;101749.92;1759125;79;21169;-76
2021/10/25 09:15:58;;;;;;;3.05;1.60;;;;;;;7.75;44.63;101756.95;1753339;80;21340;-75
2021/10/25 09:19:17;;;;;;;2.55;1.40;;;;;;;7.86;44.66;101755.13;1739776;80;21843;-76
2021/10/25 09:22:25;;;;;;;2.22;1.60;;;;;;;7.93;44.13;101751.39;1751966;80;21411;-76
2021/10/25 09:25:39;;;;;;;2.52;1.45;;;;;;;7.92;44.18;101748.30;1772222;80;21863;-75
2021/10/25 09:28:51;;;;;;;5.95;1.67;;;;;;;7.97;44.63;101747.93;1746807;81;21273;-76
2021/10/25 09:32:15;;;;;;;1.87;1.30;;;;;;;8.15;43.27;101758.70;1743766;81;21751;-76
2021/10/25 09:35:29;;;;;;;3.70;2.02;;;;;;;8.25;42.27;101768.35;1744928;81;21337;-76
2021/10/25 09:39:03;;;;;;;2.85;1.67;;;;;;;8.27;42.24;101768.58;1772424;80;21235;-76
2021/10/25 09:49:05;;;;;;;4.03;2.05;;;;;;;8.36;42.28;101758.78;1766990;79;21374;-76
2021/10/25 09:52:10;;;;;;;4.05;1.75;;;;;;;8.30;42.23;101760.16;1760301;79;21302;-76
2021/10/25 09:55:19;;;;;;;3.22;2.00;;;;;;;8.22;42.17;101760.41;1760846;80;22176;-75
2021/10/25 09:58:28;;;;;;;2.90;2.00;;;;;;;8.13;42.50;101768.34;1768295;80;21333;-76
2021/10/25 10:01:34;;;;;;;8.98;2.47;;;;;;;7.99;42.05;101760.42;1771220;80;21302;-76
2021/10/25 10:04:41;;;;;;;9.55;2.22;;;;;;;7.90;42.64;101766.15;1769974;80;21712;-76
2021/10/25 10:07:51;;;;;;;3.58;1.98;;;;;;;7.90;42.54;101764.78;1773988;80;21164;-75
2021/10/25 10:10:58;;;;;;;4.28;2.00;;;;;;;7.94;42.54;101764.02;1776476;80;21279;-75
2021/10/25 10:14:03;;;;;;;4.28;1.72;;;;;;;8.06;42.50;101758.09;1775456;80;21792;-75
2021/10/25 10:17:13;;;;;;;3.60;1.65;;;;;;;8.10;42.50;101743.22;1772143;79;21704;-76
2021/10/25 10:20:21;;;;;;;3.25;1.72;;;;;;;8.10;41.77;101760.94;1769564;80;21286;-76
2021/10/25 10:23:27;;;;;;;3.80;1.55;;;;;;;8.04;41.71;101759.55;1765517;79;21321;-76
2021/10/25 10:26:35;;;;;;;4.53;1.60;;;;;;;7.94;41.57;101753.13;1774578;80;21168;-76
2021/10/25 10:29:47;;;;;;;2.85;1.60;;;;;;;7.85;41.69;101747.05;1773923;80;21819;-76
2021/10/25 10:33:09;;;;;;;2.52;1.65;;;;;;;7.85;41.55;101750.64;1766836;79;21179;-76
2021/10/25 10:36:35;;;;;;;3.72;2.42;;;;;;;7.89;41.43;101743.09;1743989;81;21151;-76
2021/10/25 10:39:39;;;;;;;4.92;2.20;;;;;;;8.02;41.56;101744.34;1753809;80;21593;-75
2021/10/25 10:43:05;;;;;;;6.95;2.65;;;;;;;8.10;41.79;101750.03;1753083;81;21162;-76
2021/10/25 10:46:15;;;;;;;4.33;2.22;;;;;;;8.08;41.55;101742.46;1766977;80;21306;-76
2021/10/25 10:49:57;;;;;;;3.35;1.50;;;;;;;8.03;41.30;101738.75;1752359;81;21928;-76
2021/10/25 10:53:13;;;;;;;;;;;;;;;7.98;41.67;101740.98;1773281;80;21329;-76
2021/10/25 10:56:28;;;;;;;9.48;2.10;;;;;;;7.96;41.66;101742.12;1770845;80;20284;-76
2021/10/25 10:59:41;;;;;;;11.60;2.30;;;;;;;7.87;41.90;101740.50;1753823;81;21789;-76
2021/10/25 11:03:07;;;;;;;4.37;1.90;;;;;;;7.84;41.86;101740.73;1752742;80;21174;-76
2021/10/25 11:06:19;;;;;;;7.10;1.77;;;;;;;7.76;41.51;101740.48;1757204;81;21634;-76
2021/10/25 11:09:41;;;;;;;2.17;1.45;;;;;;;7.72;41.65;101743.61;1774992;80;21218;-76
2021/10/25 11:13:00;;;;;;;6.33;1.92;;;;;;;7.73;41.29;101738.52;1776979;80;21264;-77
2021/10/25 11:19:15;;;;;;;12.53;2.47;;;;;;;7.83;41.61;101749.91;1750296;80;21247;-76
2021/10/25 11:22:34;;;;;;;7.12;2.20;;;;;;;7.89;41.65;101752.13;1732707;82;21908;-77
2021/10/25 11:25:48;;;;;;;8.85;1.65;;;;;;;7.95;41.42;101750.76;1708839;84;21296;-80
2021/10/25 11:29:09;;;;;;;6.30;2.33;;;;;;;8.02;41.43;101737.52;1726063;82;22234;-80
2021/10/25 11:32:16;;;;;;;;;;;;;;;8.03;40.89;101742.84;1719939;82;21193;-80
2021/10/25 11:35:23;;;;;;;5.40;2.10;;;;;;;8.05;40.87;101752.27;1719062;83;20256;-80
2021/10/25 11:38:30;;;;;;;15.38;2.50;;;;;;;7.99;40.83;101745.94;1778103;79;21395;-77
2021/10/25 11:41:37;;;;;;;4.42;2.05;;;;;;;7.98;41.09;101750.52;1727351;83;21184;-80
2021/10/25 11:44:43;;;;;;;5.78;2.20;;;;;;;8.01;40.98;101739.88;1778276;80;21665;-80
2021/10/25 11:47:52;;;;;;;8.75;2.33;;;;;;;8.07;41.14;101744.83;1758509;80;21814;-80
2021/10/25 11:50:58;;;;;;;9.88;3.40;;;;;;;8.11;41.04;101751.77;1756530;80;21340;-80
2021/10/25 11:54:06;;;;;;;6.35;3.52;;;;;;;8.17;41.03;101752.61;1718219;83;21283;-80
2021/10/25 11:57:12;;;;;;;4.78;3.17;;;;;;;8.19;40.84;101753.38;1769926;79;21298;-80
2021/10/25 12:00:23;;;;;;;6.35;3.30;;;;;;;8.16;40.91;101760.42;1768316;80;21277;-77
2021/10/25 12:03:32;;;;;;;6.53;3.37;;;;;;;8.06;40.87;101750.77;1766248;80;21258;-76
2021/10/25 12:06:39;;;;;;;8.20;3.10;;;;;;;7.94;40.90;101746.31;1764771;79;21274;-75
2021/10/25 12:09:46;;;;;;;7.97;2.62;;;;;;;7.83;40.92;101748.55;1766281;80;21156;-75
2021/10/25 12:12:51;;;;;;;5.35;2.35;;;;;;;7.72;40.95;101748.55;1764305;80;21279;-75
2021/10/25 12:16:04;;;;;;;5.12;2.65;;;;;;;7.63;41.36;101749.29;1737791;81;21598;-75
2021/10/25 12:19:08;;;;;;;4.95;2.80;;;;;;;7.58;41.53;101744.70;1741317;82;21294;-75
2021/10/25 12:22:24;;;;;;;5.60;2.40;;;;;;;7.54;41.36;101745.94;1761232;81;21677;-75
2021/10/25 12:25:30;;;;;;;5.22;2.42;;;;;;;7.51;41.53;101755.70;1749900;81;21238;-74
2021/10/25 12:28:34;;;;;;;8.38;3.52;;;;;;;7.50;41.54;101751.25;1741607;82;21180;-74
2021/10/25 12:31:40;;;;;;;10.68;3.45;;;;;;;7.50;41.32;101749.39;1759887;80;21779;-76
2021/10/25 12:34:58;;;;;;;7.40;3.42;;;;;;;7.52;41.19;101756.06;1761150;81;21153;-79
2021/10/25 12:38:14;;;;;;;5.00;3.35;;;;;;;7.51;41.14;101751.11;1649196;85;21338;-79
2021/10/25 12:41:19;;;;;;;9.28;3.62;;;;;;;7.48;41.15;101745.94;1656456;85;21195;-79
2021/10/25 12:44:41;;;;;;;6.35;3.37;;;;;;;7.46;41.16;101745.66;1654138;85;21314;-79
2021/10/25 12:47:46;;;;;;;7.25;3.77;;;;;;;7.43;41.43;101748.13;1688662;83;21189;-79
2021/10/25 12:50:52;;;;;;;7.87;3.20;;;;;;;7.39;41.51;101748.88;1679106;84;21359;-76
2021/10/25 12:53:58;;;;;;;6.62;3.20;;;;;;;7.38;41.72;101753.06;1693112;82;21189;-79
2021/10/25 12:57:05;;;;;;;5.37;2.67;;;;;;;7.36;41.81;101749.11;1685095;84;21186;-80
2021/10/25 13:00:18;;;;;;;5.72;2.83;;;;;;;7.33;41.92;101743.03;1698007;84;21154;-76
2021/10/25 13:03:22;;;;;;;11.15;3.37;;;;;;;7.30;41.99;101745.52;1688565;83;21949;-79
2021/10/25 13:06:31;;;;;;;10.58;3.35;;;;;;;7.28;42.11;101746.12;1676528;83;21340;-76
2021/10/25 13:09:35;;;;;;;5.97;2.98;;;;;;;7.26;42.06;101749.47;1678549;84;21301;-79
2021/10/25 13:12:41;;;;;;;5.25;2.98;;;;;;;7.21;42.02;101747.60;1674440;85;21839;-79
2021/10/25 13:15:49;;;;;;;6.55;3.58;;;;;;;7.18;42.11;101753.27;1647848;87;21312;-79
2021/10/25 13:18:54;;;;;;;25.60;4.12;;;;;;;7.17;42.39;101728.41;1659656;85;21206;-76
2021/10/25 13:21:59;;;;;;;11.43;3.67;;;;;;;7.16;42.42;101748.45;1652924;86;21841;-79
2021/10/25 13:25:04;;;;;;;15.23;4.15;;;;;;;7.16;42.44;101747.09;1680883;83;21314;-79
2021/10/25 13:28:12;;;;;;;6.87;3.27;;;;;;;7.15;42.22;101743.97;1709980;84;21344;-76
2021/10/25 13:31:17;;;;;;;6.58;3.55;;;;;;;7.11;42.49;101736.56;1710688;84;21816;-76
2021/10/25 13:34:23;;;;;;;6.53;3.55;;;;;;;7.09;42.43;101741.73;1710863;84;21218;-79
2021/10/25 13:37:27;;;;;;;6.78;3.65;;;;;;;7.06;42.38;101748.30;1718527;82;21221;-80
2021/10/25 13:40:39;;;;;;;5.20;3.27;;;;;;;7.03;42.38;101749.02;1737198;82;21949;-80
2021/10/25 13:43:46;;;;;;;4.97;2.83;;;;;;;6.99;42.42;101747.52;1735746;82;21320;-76
2021/10/25 13:46:55;;;;;;;6.87;3.00;;;;;;;6.95;42.46;101752.32;1724489;82;21793;-80
2021/10/25 13:50:02;;;;;;;10.53;3.95;;;;;;;6.92;42.65;101751.22;1713012;84;21849;-76
2021/10/25 13:53:09;;;;;;;11.15;4.22;;;;;;;6.88;42.73;101755.16;1729987;81;21324;-76
2021/10/25 13:56:14;;;;;;;15.25;4.67;;;;;;;6.84;42.80;101760.45;1742285;82;21302;-75
2021/10/25 13:59:19;;;;;;;11.55;4.53;;;;;;;6.79;42.91;101754.50;1742796;82;21217;-79
2021/10/25 14:02:29;;;;;;;14.60;4.17;;;;;;;6.75;42.92;101752.99;1743071;82;21299;-76
2021/10/25 14:05:34;;;;;;;10.58;3.98;;;;;;;6.69;43.07;101751.61;1742790;82;21295;-76
2021/10/25 14:08:39;;;;;;;8.83;4.25;;;;;;;6.63;43.16;101755.67;1742916;82;21830;-80
2021/10/25 14:11:47;;;;;;;10.00;3.65;;;;;;;6.57;43.27;101755.24;1742897;82;21299;-80
2021/10/25 14:15:03;;;;;;;10.03;4.42;;;;;;;6.50;43.50;101758.06;1742748;82;21324;-76
2021/10/25 14:18:00;;;;;;;15.90;5.45;;;;;;;6.42;43.61;101757.76;1743014;82;21315;-79
2021/10/25 14:21:05;;;;;;;17.15;5.17;;;;;;;6.33;43.78;101764.24;1743142;82;21315;-76
2021/10/25 14:24:13;;;;;;;12.98;4.70;;;;;;;6.26;43.87;101758.91;1742938;82;21181;-80
2021/10/25 14:27:19;;;;;;;14.78;5.17;;;;;;;6.20;44.09;101769.34;1742917;82;21303;-76
2021/10/25 14:30:24;;;;;;;20.48;4.97;;;;;;;6.11;44.25;101769.52;1743035;82;21327;-76
2021/10/25 14:33:31;;;;;;;13.03;4.90;;;;;;;6.02;44.40;101772.90;1743138;82;21319;-79
2021/10/25 14:36:36;;;;;;;23.42;6.10;;;;;;;5.90;44.52;101771.42;1743043;82;21276;-76
2021/10/25 14:39:44;;;;;;;17.48;5.87;;;;;;;5.81;44.71;101784.31;1735498;81;21191;-79
2021/10/25 14:42:58;;;;;;;22.77;5.83;;;;;;;5.70;44.99;101780.64;1735515;82;21333;-79
2021/10/25 14:46:11;;;;;;;10.15;4.60;;;;;;;5.59;45.32;101786.31;1735626;82;21368;-79
2021/10/25 14:56:09;;;;;;;8.63;3.60;;;;;;;5.27;45.91;101784.52;1735601;82;21374;-76
2021/10/25 14:58:51;;;;;;;19.80;4.47;;;;;;;5.18;46.12;101792.42;1734216;82;21250;-79
2021/10/25 15:01:57;;;;;;;11.83;4.90;;;;;;;5.06;46.26;101784.13;1735363;82;21408;-76
2021/10/25 15:05:09;;;;;;;11.33;5.40;;;;;;;4.97;46.36;101785.25;1735465;82;21285;-80
2021/10/25 15:08:11;;;;;;;23.32;3.98;;;;;;;4.87;46.51;101790.43;1734737;82;21329;-80
2021/10/25 15:11:18;;;;;;;7.12;3.80;;;;;;;4.78;46.66;101792.41;1735447;82;21325;-79
2021/10/25 15:14:24;;;;;;;8.98;5.15;;;;;;;4.69;46.82;101795.23;1735334;82;21287;-76
2021/10/25 15:17:29;;;;;;;14.35;7.67;;;;;;;4.61;46.95;101801.65;1735001;82;21202;-75
2021/10/25 15:20:34;;;;;;;26.10;15.58;;;;;;;4.53;47.19;101809.44;1734098;82;21293;-80
2021/10/25 15:23:39;;;;;;;29.98;13.25;;;;;;;4.46;47.42;101804.89;1735425;82;21338;-79
2021/10/25 15:26:47;;;;;;;15.55;7.58;;;;;;;4.40;47.57;101808.50;1735521;82;21294;-76
2021/10/25 15:29:52;;;;;;;20.52;7.37;;;;;;;4.33;47.68;101806.20;1735513;82;21297;-76
2021/10/25 15:32:57;;;;;;;149.60;48.13;;;;;;;4.26;47.68;101806.19;1735492;82;21318;-75
2021/10/25 15:36:03;;;;;;;203.52;68.33;;;;;;;4.17;47.51;101806.78;1735575;82;21717;-76
2021/10/25 15:39:09;;;;;;;132.63;45.45;;;;;;;4.03;47.58;101814.92;1733225;82;21339;-80
2021/10/25 15:42:15;;;;;;;92.78;34.27;;;;;;;3.87;47.60;101815.52;1735567;82;21361;-79
2021/10/25 15:45:20;;;;;;;71.80;25.48;;;;;;;3.72;48.44;101816.87;1735582;82;21286;-76
2021/10/25 15:48:25;;;;;;;85.67;27.90;;;;;;;3.66;48.94;101814.52;1735545;82;21250;-80
2021/10/25 15:51:29;;;;;;;82.82;27.90;;;;;;;3.63;49.24;101824.20;1735628;82;21306;-80
2021/10/25 15:54:34;;;;;;;70.37;25.77;;;;;;;3.59;49.36;101826.22;1735594;82;21345;-80
2021/10/25 15:57:40;;;;;;;89.05;32.95;;;;;;;3.53;49.67;101829.31;1735641;82;21859;-76
2021/10/25 16:00:46;;;;;;;112.35;41.20;;;;;;;3.50;49.69;101834.03;1735489;82;21289;-76
2021/10/25 16:03:52;;;;;;;290.80;95.55;;;;;;;3.43;49.74;101832.65;1733918;82;21344;-76
2021/10/25 16:06:58;;;;;;;186.12;66.50;;;;;;;3.35;49.59;101837.68;1735324;82;21198;-79
2021/10/25 16:10:03;;;;;;;194.43;59.20;;;;;;;3.25;49.86;101841.42;1735523;82;21325;-80
2021/10/25 16:13:10;;;;;;;145.55;50.63;;;;;;;3.16;50.12;101844.19;1735522;82;21309;-76
2021/10/25 16:16:16;;;;;;;95.05;32.00;;;;;;;3.11;50.47;101842.73;1735545;82;21167;-76
2021/10/25 16:19:20;;;;;;;80.00;27.17;;;;;;;3.06;50.54;101841.65;1735581;82;21310;-76
2021/10/25 16:22:25;;;;;;;68.33;25.57;;;;;;;3.02;50.98;101840.08;1735515;82;21321;-75
2021/10/25 16:25:30;;;;;;;94.52;33.75;;;;;;;3.02;51.24;101840.08;1735489;82;21253;-79
2021/10/25 16:28:35;;;;;;;71.20;32.85;;;;;;;3.04;51.20;101848.47;1735394;82;21214;-79